createdAt,value
2022-11-20T00:00:53.734Z,2.30
2022-11-20T00:03:27.598Z,2.35
2022-11-20T00:05:54.761Z,2.33
2022-11-20T00:08:28.613Z,2.42
2022-11-20T00:10:55.778Z,1.88
2022-11-20T00:13:22.885Z,2.50
2022-11-20T00:15:56.717Z,2.05
2022-11-20T00:18:23.883Z,2.17
2022-11-20T00:20:57.681Z,2.33
2022-11-20T00:23:24.857Z,2.45
2022-11-20T00:25:51.960Z,2.58
2022-11-20T00:28:25.573Z,2.50
2022-11-20T00:30:52.817Z,2.42
2022-11-20T00:33:26.603Z,2.50
2022-11-20T00:35:53.761Z,2.38
2022-11-20T00:38:27.691Z,2.20
2022-11-20T00:40:58.511Z,2.60
2022-11-20T00:43:25.848Z,2.63
2022-11-20T00:46:04.577Z,2.33
2022-11-20T00:48:52.456Z,2.53
2022-11-20T00:51:20.968Z,2.67
2022-11-20T00:53:48.211Z,3.00
2022-11-20T00:56:23.494Z,2.65
2022-11-20T00:58:51.001Z,2.50
2022-11-20T01:03:53.510Z,2.60
2022-11-20T01:06:28.447Z,2.70
2022-11-20T01:08:56.983Z,2.97
2022-11-20T01:11:40.477Z,2.95
2022-11-20T01:14:09.028Z,2.53
2022-11-20T01:16:44.591Z,2.67
2022-11-20T01:19:17.531Z,3.00
2022-11-20T01:21:52.443Z,3.15
2022-11-20T01:24:27.528Z,2.72
2022-11-20T01:27:01.591Z,2.88
2022-11-20T01:29:28.865Z,2.67
2022-11-20T01:31:56.036Z,2.70
2022-11-20T01:34:30.599Z,2.90
2022-11-20T01:36:57.852Z,2.55
2022-11-20T01:39:32.571Z,2.75
2022-11-20T01:42:18.413Z,3.50
2022-11-20T01:45:06.551Z,2.83
2022-11-20T01:47:40.894Z,2.92
2022-11-20T01:50:41.582Z,2.88
2022-11-20T01:53:11.954Z,2.60
2022-11-20T01:55:48.531Z,2.83
2022-11-20T01:58:15.800Z,2.45
2022-11-20T02:00:42.959Z,3.05
2022-11-20T02:03:19.533Z,2.60
2022-11-20T02:05:49.510Z,2.80
2022-11-20T02:08:23.661Z,2.80
2022-11-20T02:10:50.913Z,2.38
2022-11-20T02:13:43.542Z,2.83
2022-11-20T02:16:29.459Z,2.50
2022-11-20T02:19:03.544Z,2.70
2022-11-20T02:21:40.434Z,2.60
2022-11-20T02:24:17.672Z,2.88
2022-11-20T02:26:59.458Z,2.73
2022-11-20T02:29:34.549Z,2.85
2022-11-20T02:32:09.457Z,2.65
2022-11-20T02:34:43.645Z,2.95
2022-11-20T02:37:17.621Z,2.78
2022-11-20T02:39:46.567Z,3.22
2022-11-20T02:42:13.794Z,2.90
2022-11-20T02:44:47.612Z,2.83
2022-11-20T02:47:21.480Z,2.83
2022-11-20T02:49:55.555Z,3.22
2022-11-20T02:52:36.449Z,2.80
2022-11-20T02:55:10.545Z,3.08
2022-11-20T02:57:44.481Z,3.00
2022-11-20T03:00:12.124Z,3.20
2022-11-20T03:02:39.294Z,3.35
2022-11-20T03:05:12.594Z,3.40
2022-11-20T03:07:39.999Z,3.30
2022-11-20T03:10:14.714Z,3.10
2022-11-20T03:12:41.845Z,3.38
2022-11-20T03:15:09.281Z,3.28
2022-11-20T03:20:10.490Z,3.03
2022-11-20T03:22:44.696Z,3.60
2022-11-20T03:25:11.786Z,3.55
2022-11-20T03:27:39.030Z,3.13
2022-11-20T03:30:13.627Z,3.40
2022-11-20T03:32:40.915Z,3.40
2022-11-20T03:35:14.703Z,3.42
2022-11-20T03:37:41.900Z,3.50
2022-11-20T03:40:09.321Z,3.42
2022-11-20T03:45:22.875Z,2.90
2022-11-20T03:47:56.693Z,3.75
2022-11-20T03:50:30.559Z,3.00
2022-11-20T03:53:04.666Z,3.30
2022-11-20T03:55:31.882Z,3.65
2022-11-20T03:57:58.984Z,3.30
2022-11-20T04:00:32.591Z,3.50
2022-11-20T04:03:00.781Z,3.28
2022-11-20T04:05:34.559Z,2.92
2022-11-20T04:08:02.495Z,3.15
2022-11-20T04:10:29.617Z,3.03
2022-11-20T04:13:03.654Z,3.05
2022-11-20T04:15:35.648Z,3.40
2022-11-20T04:18:18.688Z,3.08
2022-11-20T04:20:45.890Z,3.70
2022-11-20T04:23:12.993Z,2.97
2022-11-20T04:25:46.616Z,3.38
2022-11-20T04:28:13.826Z,3.38
2022-11-20T04:30:47.586Z,3.03
2022-11-20T04:33:14.767Z,3.17
2022-11-20T04:35:41.872Z,3.42
2022-11-20T04:38:15.571Z,3.45
2022-11-20T04:40:42.659Z,3.67
2022-11-20T04:43:16.575Z,3.20
2022-11-20T04:45:43.737Z,3.00
2022-11-20T04:48:17.695Z,3.40
2022-11-20T04:50:51.537Z,3.40
2022-11-20T04:53:32.559Z,3.47
2022-11-20T04:56:03.652Z,3.33
2022-11-20T04:58:31.026Z,3.40
2022-11-20T05:01:30.593Z,3.55
2022-11-20T05:03:57.773Z,3.60
2022-11-20T05:06:31.700Z,3.40
2022-11-20T05:08:59.019Z,3.35
2022-11-20T05:11:26.516Z,3.40
2022-11-20T05:16:27.993Z,3.53
2022-11-20T05:19:01.802Z,3.13
2022-11-20T05:21:28.988Z,3.08
2022-11-20T05:23:56.196Z,3.45
2022-11-20T05:26:30.591Z,3.20
2022-11-20T05:28:57.904Z,3.17
2022-11-20T05:31:32.667Z,3.22
2022-11-20T05:34:00.016Z,3.20
2022-11-20T05:36:33.688Z,3.53
2022-11-20T05:39:01.906Z,3.40
2022-11-20T05:41:29.541Z,3.65
2022-11-20T05:44:04.565Z,3.20
2022-11-20T05:46:31.826Z,3.47
2022-11-20T05:49:05.843Z,3.40
2022-11-20T05:51:39.506Z,3.50
2022-11-20T05:54:13.712Z,3.80
2022-11-20T05:56:40.974Z,4.20
2022-11-20T05:59:08.121Z,3.72
2022-11-20T06:01:43.671Z,3.30
2022-11-20T06:04:10.867Z,3.70
2022-11-20T06:06:44.692Z,3.88
2022-11-20T06:09:11.852Z,3.78
2022-11-20T06:11:39.038Z,3.42
2022-11-20T06:14:12.758Z,3.80
2022-11-20T06:16:39.889Z,3.60
2022-11-20T06:19:07.031Z,3.67
2022-11-20T06:21:40.598Z,3.33
2022-11-20T06:24:07.942Z,3.20
2022-11-20T06:26:41.750Z,3.58
2022-11-20T06:29:08.988Z,3.25
2022-11-20T06:31:38.620Z,3.15
2022-11-20T06:34:13.569Z,3.47
2022-11-20T06:36:40.779Z,3.00
2022-11-20T06:39:14.566Z,2.85
2022-11-20T06:41:41.759Z,2.80
2022-11-20T06:44:15.789Z,2.70
2022-11-20T06:46:45.955Z,3.25
2022-11-20T06:49:26.719Z,3.20
2022-11-20T06:52:00.589Z,2.78
2022-11-20T06:54:34.775Z,2.75
2022-11-20T06:57:01.925Z,2.38
2022-11-20T06:59:28.993Z,2.40
2022-11-20T07:02:02.551Z,2.45
2022-11-20T07:04:29.724Z,2.72
2022-11-20T07:07:03.722Z,2.80
2022-11-20T07:09:31.010Z,2.45
2022-11-20T07:12:04.731Z,2.50
2022-11-20T07:14:31.837Z,2.45
2022-11-20T07:16:59.007Z,2.60
2022-11-20T07:19:32.644Z,2.83
2022-11-20T07:21:59.740Z,2.30
2022-11-20T07:24:33.743Z,1.77
2022-11-20T07:27:00.862Z,2.70
2022-11-20T07:29:28.002Z,2.22
2022-11-20T07:32:03.809Z,2.17
2022-11-20T07:34:30.898Z,2.20
2022-11-20T07:36:58.625Z,2.30
2022-11-20T07:39:32.581Z,2.08
2022-11-20T07:41:59.750Z,2.28
2022-11-20T07:44:33.817Z,2.20
2022-11-20T07:47:00.915Z,2.15
2022-11-20T07:49:41.722Z,2.17
2022-11-20T07:52:08.798Z,2.65
2022-11-20T07:54:35.962Z,2.15
2022-11-20T07:57:09.586Z,2.10
2022-11-20T07:59:36.770Z,2.30
2022-11-20T08:02:10.743Z,2.35
2022-11-20T08:04:38.005Z,2.58
2022-11-20T08:07:05.193Z,2.97
2022-11-20T08:09:38.676Z,2.40
2022-11-20T08:12:24.703Z,2.50
2022-11-20T08:14:58.598Z,2.20
2022-11-20T08:17:25.839Z,2.58
2022-11-20T08:20:00.174Z,2.10
2022-11-20T08:22:27.458Z,2.65
2022-11-20T08:24:54.575Z,2.42
2022-11-20T08:27:28.601Z,3.75
2022-11-20T08:29:56.036Z,2.50
2022-11-20T08:34:56.686Z,2.63
2022-11-20T08:37:23.856Z,2.67
2022-11-20T08:39:57.556Z,2.38
2022-11-20T08:42:24.770Z,2.40
2022-11-20T08:44:58.831Z,2.50
2022-11-20T08:47:26.061Z,2.80
2022-11-20T08:50:12.889Z,2.33
2022-11-20T08:52:40.209Z,2.33
2022-11-20T08:55:07.854Z,2.30
2022-11-20T08:57:46.697Z,2.35
2022-11-20T09:00:16.949Z,2.47
2022-11-20T09:02:50.602Z,2.35
2022-11-20T09:05:17.760Z,2.45
2022-11-20T09:07:51.615Z,2.13
2022-11-20T09:10:25.804Z,2.13
2022-11-20T09:12:59.726Z,2.33
2022-11-20T09:15:27.663Z,2.30
2022-11-20T09:17:55.385Z,2.30
2022-11-20T09:20:29.626Z,2.30
2022-11-20T09:22:57.168Z,2.20
2022-11-20T09:27:58.125Z,2.25
2022-11-20T09:32:58.879Z,2.30
2022-11-20T09:35:25.997Z,2.38
2022-11-20T09:37:59.666Z,2.38
2022-11-20T09:40:30.770Z,2.00
2022-11-20T09:43:23.595Z,2.00
2022-11-20T09:45:55.250Z,1.92
2022-11-20T09:48:47.605Z,1.88
2022-11-20T09:51:23.116Z,2.10
2022-11-20T09:54:06.622Z,2.00
2022-11-20T09:56:35.168Z,1.85
2022-11-20T09:59:12.638Z,1.67
2022-11-20T10:01:41.746Z,1.63
2022-11-20T10:04:21.742Z,1.83
2022-11-20T10:07:04.084Z,1.75
2022-11-20T10:09:45.830Z,1.88
2022-11-20T10:12:31.416Z,1.70
2022-11-20T10:15:08.979Z,1.90
2022-11-20T10:17:42.019Z,1.80
2022-11-20T10:20:25.932Z,2.05
2022-11-20T10:23:11.523Z,1.80
2022-11-20T10:25:45.688Z,2.55
2022-11-20T10:28:31.488Z,2.03
2022-11-20T10:31:09.614Z,1.77
2022-11-20T10:33:57.170Z,2.00
2022-11-20T10:36:34.641Z,2.03
2022-11-20T10:39:09.029Z,1.95
2022-11-20T10:41:48.642Z,1.75
2022-11-20T10:44:47.334Z,2.00
2022-11-20T10:47:22.716Z,1.27
2022-11-20T10:49:59.590Z,1.90
2022-11-20T10:52:58.618Z,1.77
2022-11-20T10:55:38.793Z,2.63
2022-11-20T10:58:18.634Z,2.03
2022-11-20T11:00:46.127Z,1.98
2022-11-20T11:05:50.931Z,2.05
2022-11-20T11:08:19.470Z,2.10
2022-11-20T11:11:01.733Z,2.22
2022-11-20T11:13:30.360Z,1.85
2022-11-20T11:15:57.609Z,2.20
2022-11-20T11:18:35.737Z,2.10
2022-11-20T11:23:41.847Z,1.90
2022-11-20T11:26:29.363Z,1.85
2022-11-20T11:29:03.907Z,2.08
2022-11-20T11:31:30.983Z,1.92
2022-11-20T11:34:14.866Z,2.17
2022-11-20T11:36:42.984Z,2.40
2022-11-20T11:39:21.992Z,2.38
2022-11-20T11:41:49.697Z,2.10
2022-11-20T11:44:46.726Z,1.95
2022-11-20T11:47:23.246Z,2.05
2022-11-20T11:50:03.783Z,2.10
2022-11-20T11:52:56.166Z,1.63
2022-11-20T11:55:39.874Z,1.60
2022-11-20T11:58:13.049Z,1.90
2022-11-20T12:00:49.790Z,2.08
2022-11-20T14:02:06.251Z,1.98
2022-11-20T14:04:36.858Z,2.30
2022-11-20T14:07:13.459Z,1.70
2022-11-20T14:09:40.835Z,2.03
2022-11-20T14:12:24.245Z,1.77
2022-11-20T14:14:59.043Z,1.70
2022-11-20T14:17:33.881Z,1.60
2022-11-20T14:20:21.042Z,1.63
2022-11-20T14:22:54.620Z,2.00
2022-11-20T14:25:31.184Z,2.10
2022-11-20T14:27:59.806Z,2.08
2022-11-20T14:30:28.987Z,2.00
2022-11-20T14:33:04.220Z,1.90
2022-11-20T14:35:32.960Z,2.00
2022-11-20T14:38:07.364Z,1.75
2022-11-20T14:40:37.582Z,1.77
2022-11-20T14:43:28.304Z,2.15
2022-11-20T14:46:04.290Z,2.20
2022-11-20T14:48:45.414Z,2.17
2022-11-20T14:51:13.168Z,2.83
2022-11-20T14:53:40.287Z,2.30
2022-11-20T14:56:14.165Z,2.70
2022-11-20T14:58:57.214Z,2.28
2022-11-20T15:01:38.182Z,2.55
2022-11-20T15:04:11.024Z,2.70
2022-11-20T15:06:45.385Z,2.58
2022-11-20T15:09:16.538Z,2.75
2022-11-20T15:12:00.340Z,2.85
2022-11-20T15:14:28.969Z,2.05
2022-11-20T15:16:56.148Z,3.55
2022-11-20T15:19:31.157Z,2.95
2022-11-20T15:21:58.364Z,2.90
2022-11-20T15:24:32.076Z,2.90
2022-11-20T15:26:59.681Z,2.65
2022-11-20T15:32:02.249Z,3.00
2022-11-20T15:34:36.141Z,3.08
2022-11-20T15:37:10.331Z,2.50
2022-11-20T15:39:37.574Z,1.70
2022-11-20T15:42:04.804Z,3.00
2022-11-20T15:44:38.150Z,2.47
2022-11-20T15:47:05.411Z,2.67
2022-11-20T15:49:43.258Z,2.17
2022-11-20T15:52:11.238Z,2.42
2022-11-20T15:54:45.198Z,2.28
2022-11-20T15:57:13.915Z,2.10
2022-11-20T15:59:49.195Z,2.30
2022-11-20T16:02:23.058Z,1.90
2022-11-20T16:04:57.299Z,2.03
2022-11-20T16:07:24.593Z,1.58
2022-11-20T16:09:51.746Z,1.77
2022-11-20T16:12:45.177Z,1.75
2022-11-20T16:15:47.735Z,2.13
2022-11-20T16:18:25.180Z,1.63
2022-11-20T16:20:53.596Z,2.10
2022-11-20T16:23:28.195Z,1.75
2022-11-20T16:25:55.351Z,1.90
2022-11-20T16:28:22.590Z,1.73
2022-11-20T16:30:56.266Z,1.77
2022-11-20T16:33:23.437Z,1.80
2022-11-20T16:35:50.538Z,1.85
2022-11-20T16:38:24.156Z,1.92
2022-11-20T16:40:51.343Z,1.65
2022-11-20T16:43:25.486Z,1.35
2022-11-20T16:45:52.763Z,3.47
2022-11-20T16:48:19.905Z,2.47
2022-11-20T16:50:58.216Z,2.85
2022-11-20T16:53:25.540Z,4.00
2022-11-20T16:55:59.641Z,2.28
2022-11-20T16:58:26.931Z,2.10
2022-11-20T17:01:07.235Z,2.03
2022-11-20T17:03:41.663Z,2.15
2022-11-20T17:06:23.324Z,2.10
2022-11-20T17:08:50.650Z,2.17
2022-11-20T17:11:19.187Z,2.05
2022-11-20T17:13:53.200Z,2.00
2022-11-20T17:16:21.667Z,1.90
2022-11-20T17:19:02.541Z,1.70
2022-11-20T17:21:32.775Z,2.15
2022-11-20T17:24:11.168Z,2.00
2022-11-20T17:26:39.640Z,1.60
2022-11-20T17:29:18.324Z,1.83
2022-11-20T17:31:46.253Z,1.90
2022-11-20T17:34:14.957Z,2.08
2022-11-20T17:36:51.301Z,3.45
2022-11-20T17:39:19.348Z,3.40
2022-11-20T17:42:13.331Z,1.95
2022-11-20T17:44:42.631Z,4.93
2022-11-20T17:47:09.728Z,2.30
2022-11-20T17:49:43.512Z,1.70
2022-11-20T17:52:10.698Z,1.80
2022-11-20T17:54:37.801Z,1.60
2022-11-20T17:57:30.308Z,1.75
2022-11-20T18:00:04.182Z,1.35
2022-11-20T18:02:44.331Z,1.77
2022-11-20T18:05:11.563Z,1.60
2022-11-20T18:07:41.751Z,1.15
2022-11-20T18:10:16.230Z,1.90
2022-11-20T18:12:43.940Z,2.10
2022-11-20T18:15:11.093Z,2.03
2022-11-20T18:17:45.288Z,1.77
2022-11-20T18:20:29.536Z,1.70
2022-11-20T18:22:58.517Z,1.85
2022-11-20T18:25:32.250Z,1.38
2022-11-20T18:27:59.430Z,1.88
2022-11-20T18:30:26.743Z,1.60
2022-11-20T18:33:02.351Z,1.35
2022-11-20T18:35:29.569Z,1.65
2022-11-20T18:37:56.680Z,1.48
2022-11-20T18:40:30.174Z,1.50
2022-11-20T18:43:16.378Z,1.38
2022-11-20T18:45:50.195Z,1.17
2022-11-20T18:48:17.365Z,1.00
2022-11-20T18:50:51.204Z,1.40
2022-11-20T18:53:18.458Z,1.40
2022-11-20T18:55:52.248Z,2.08
2022-11-20T18:58:19.420Z,1.50
2022-11-20T19:01:00.426Z,1.10
2022-11-20T19:03:34.401Z,1.08
2022-11-20T19:06:08.215Z,1.13
2022-11-20T19:08:42.329Z,1.33
2022-11-20T19:11:10.144Z,1.00
2022-11-20T19:13:37.674Z,1.00
2022-11-20T19:18:38.397Z,1.10
2022-11-20T19:23:40.074Z,1.27
2022-11-20T19:26:07.852Z,1.08
2022-11-20T19:28:42.573Z,1.20
2022-11-20T19:31:11.581Z,1.80
2022-11-20T19:33:38.946Z,1.08
2022-11-20T19:36:20.366Z,1.08
2022-11-20T19:38:48.732Z,0.80
2022-11-20T19:41:16.754Z,1.30
2022-11-20T19:43:50.230Z,0.90
2022-11-20T19:46:18.714Z,1.10
2022-11-20T19:48:52.361Z,1.20
2022-11-20T19:51:20.856Z,1.10
2022-11-20T19:53:48.256Z,1.17
2022-11-20T19:56:22.242Z,0.80
2022-11-20T19:58:49.433Z,1.10
2022-11-20T20:01:24.491Z,0.88
2022-11-20T20:04:01.375Z,0.80
2022-11-20T20:06:35.359Z,1.30
2022-11-20T20:09:04.325Z,1.00
2022-11-20T20:11:32.834Z,0.73
2022-11-20T20:14:20.368Z,0.60
2022-11-20T20:16:47.810Z,0.85
2022-11-20T20:19:15.925Z,0.93
2022-11-20T20:21:49.340Z,0.93
2022-11-20T20:24:16.573Z,0.52
2022-11-20T20:26:43.813Z,0.70
2022-11-20T20:29:17.284Z,0.73
2022-11-20T20:31:44.579Z,0.98
2022-11-20T20:34:18.517Z,0.90
2022-11-20T20:36:45.766Z,0.80
2022-11-20T20:39:12.878Z,0.68
2022-11-20T20:41:46.265Z,0.77
2022-11-20T20:44:32.117Z,0.90
2022-11-20T20:47:06.482Z,0.82
2022-11-20T20:49:33.993Z,1.00
2022-11-20T20:54:36.530Z,1.00
2022-11-20T20:57:03.828Z,0.80
2022-11-20T20:59:37.434Z,0.98
2022-11-20T21:02:11.992Z,1.08
2022-11-20T21:04:46.502Z,1.02
2022-11-20T21:07:13.819Z,0.80
2022-11-20T21:09:40.991Z,0.85
2022-11-20T21:12:15.291Z,0.63
2022-11-20T21:14:42.821Z,0.80
2022-11-20T21:19:43.768Z,0.95
2022-11-20T21:24:44.628Z,0.88
2022-11-20T21:27:18.393Z,1.00
2022-11-20T21:29:45.625Z,0.77
2022-11-20T21:32:12.768Z,1.10
2022-11-20T21:34:46.293Z,1.20
2022-11-20T21:37:13.739Z,1.10
2022-11-20T21:39:57.328Z,0.93
2022-11-20T21:42:24.485Z,1.00
2022-11-20T21:44:58.758Z,1.52
2022-11-20T21:47:26.029Z,1.00
2022-11-20T21:49:59.365Z,1.35
2022-11-20T21:52:26.566Z,1.40
2022-11-20T21:54:53.748Z,0.93
2022-11-20T21:57:27.258Z,1.73
2022-11-20T21:59:54.489Z,1.40
2022-11-20T22:02:35.426Z,1.60
2022-11-20T22:05:09.330Z,1.25
2022-11-20T22:07:43.720Z,1.60
2022-11-20T22:10:14.394Z,1.30
2022-11-20T22:12:52.681Z,1.60
2022-11-20T22:15:38.898Z,1.33
2022-11-20T22:18:19.488Z,1.63
2022-11-20T22:20:46.663Z,1.40
2022-11-20T22:23:13.797Z,1.52
2022-11-20T22:25:47.301Z,1.58
2022-11-20T22:28:14.588Z,1.70
2022-11-20T22:30:48.346Z,1.50
2022-11-20T22:33:15.621Z,1.40
2022-11-20T22:35:42.843Z,1.60
2022-11-20T22:38:16.415Z,1.23
2022-11-20T22:40:48.545Z,1.08
2022-11-20T22:43:22.466Z,0.98
2022-11-20T22:45:49.694Z,0.88
2022-11-20T22:48:16.858Z,0.90
2022-11-20T22:50:51.527Z,1.00
2022-11-20T22:53:18.690Z,0.73
2022-11-20T22:55:49.625Z,1.02
2022-11-20T22:58:23.456Z,0.80
2022-11-20T23:00:57.297Z,0.70
2022-11-20T23:03:40.534Z,0.73
2022-11-20T23:06:09.517Z,0.60
2022-11-20T23:08:37.669Z,0.70
2022-11-20T23:11:12.359Z,0.70
2022-11-20T23:13:39.970Z,0.60
2022-11-20T23:16:15.414Z,0.70
2022-11-20T23:18:43.283Z,0.68
2022-11-20T23:21:11.577Z,0.70
2022-11-20T23:23:45.246Z,0.73
2022-11-20T23:26:20.313Z,0.70
2022-11-20T23:28:47.678Z,0.73
2022-11-20T23:31:15.412Z,0.57
2022-11-20T23:33:50.243Z,0.90
2022-11-20T23:36:17.690Z,0.90
2022-11-20T23:41:18.795Z,0.80
2022-11-20T23:46:19.359Z,0.77
2022-11-20T23:48:46.516Z,0.93
2022-11-20T23:51:21.421Z,0.85
2022-11-20T23:53:48.590Z,1.10
2022-11-20T23:56:15.775Z,0.80
2022-11-20T23:58:50.280Z,0.80
